MNMGMHLM

Guest
Details From MNMG - Managua Intl
To MHLM - La Mesa Intl
Flight Number -
Tags generated
Created
Modified
Stats Distance 229 nm / 424 km
Max Altitude 24,600 ft / 7,498 m
Waypoints 6
Social Downloads 0
Likes 0
Share VATSIM

Download

Looking for another format? Having issues loading an existing format? Contact us
Advertisement - Login to hide

Notes

Basic altitude profile: - Ascent Rate: 2500ft/min - Ascent Speed: 250kts - Cruise Altitude: 35000ft - Cruise Speed: 420kts - Descent Rate: 1500ft/min - Descent Speed: 250kts Options: - Use NATs: yes - Use PACOTS: yes - Use low airways: yes - Use high airways: yes

Route

MNMG MGA A502 BERTA UA502 TNT MHLM

ID Type Via Altitude Latitude Longitude Leg Dist Tot Dist Heading (true) Name
O MNMG APT - 0 ft / 0 m 12.14149˚ -86.16818˚ - 0 nm - Managua Intl
MGA VOR - 100 ft / 30 m 12.13972˚ -86.17422˚ 0 nm 0 nm 253° / 253° MANAGUA VOR-DME
BERTA FIX A502 (AWY-LO) 18,500 ft / 5,639 m 12.95000˚ -86.77333˚ 60 nm 60 nm 324° / 324° -
LIBIS FIX UA502 (AWY-HI) 24,600 ft / 7,498 m 13.61333˚ -87.26667˚ 49 nm 109 nm 324° / 324° -
TNT VOR UA502 (AWY-HI) 19,200 ft / 5,852 m 14.02889˚ -87.22917˚ 25 nm 134 nm 5° / 5° TONCONTIN VOR-DME
O MHLM APT - 0 ft / 0 m 15.45196˚ -87.92415˚ 94 nm 229 nm 335° / 335° La Mesa Intl

Altitude Profile

Advertisement - Login to hide

Weather


0- 5 10 15 20 25 30 35+ Temperature / ° C

Clouds and Precipitation
Forecast for 2017-12-11 18:00 UTC. Updated 11 minutes ago

Ground ~20,000 ft ~40,000 ft Winds

MNMG

Details ICAO MNMG (MGA)
Name Managua Intl
Region Nicaragua
Timezone America/Managua (UTC-6.0)
Stats Elevation 194 ft / 59 m (AMSL)
Location 12.141493° -86.168178°
Runways 1
Magnetic Variation 0.944° W

METAR

MNMG 111700Z 08006KT 9999 FEW022 SCT300 28/17 Q1014 A2996 NOSIG

Decode

TAF

Not found

Departure Runways

ID Width Length Bearing (true) Bearing (mag) Surface Threshold Offset Overrun Length
09 148 ft / 45 m 8,008 ft / 2,441 m 96.54° 97.48° Asphalt 0 ft / 0 m 100 ft / 30 m
27 148 ft / 45 m 8,008 ft / 2,441 m 276.55° 277.49° Asphalt 0 ft / 0 m 100 ft / 30 m

MHLM

Details ICAO MHLM (SAP)
Name La Mesa Intl
Region Honduras
Timezone America/Tegucigalpa (UTC-6.0)
Stats Elevation 91 ft / 28 m (AMSL)
Location 15.451957° -87.924153°
Runways 1
Magnetic Variation 0.472° W

METAR

MHLM 111700Z 09004KT 9999 FEW026 BKN080 22/18 Q1024 A3024 NOSIG

Decode

TAF

Not found

Destination Runways

ID Width Length Bearing (true) Bearing (mag) Surface Threshold Offset Overrun Length
04 148 ft / 45 m 9,232 ft / 2,814 m 40.08° 40.55° Concrete 656 ft / 200 m 262 ft / 80 m
22 148 ft / 45 m 9,232 ft / 2,814 m 220.08° 220.55° Concrete 0 ft / 0 m 492 ft / 150 m

Popular Alternatives